Time;durP1;ratioP1;P1;durP2;ratioP2;P2;SDS_P1;SDS_P2;PMS_P1;PMS_P2;Temp;Humidity;BMP_temperature;BMP_pressure;BME280_temperature;BME280_humidity;BME280_pressure;Samples;Min_cycle;Max_cycle;Signal;HPM_P1;HPM_P2
2023/11/18 00:02:17;;;;;;;1.70;0.82;;;10.00;99.90;;;;;;5047341;28;20083;-77
2023/11/18 00:04:43;;;;;;;4.70;1.70;;;10.00;99.90;;;;;;5013476;28;20090;-78
2023/11/18 00:07:09;;;;;;;1.10;0.95;;;10.10;99.90;;;;;;5046603;28;20033;-78
2023/11/18 00:09:35;;;;;;;1.48;0.63;;;10.20;99.90;;;;;;5046195;28;20029;-77
2023/11/18 00:12:01;;;;;;;9.30;2.78;;;10.30;99.90;;;;;;5046046;28;20022;-78
2023/11/18 00:14:26;;;;;;;1.95;1.15;;;10.30;99.90;;;;;;5046027;28;20111;-77
2023/11/18 00:16:52;;;;;;;3.58;0.82;;;10.30;99.90;;;;;;5046066;28;20025;-77
2023/11/18 00:19:18;;;;;;;3.15;1.35;;;10.40;99.90;;;;;;5029229;28;20097;-77
2023/11/18 00:21:44;;;;;;;1.77;1.00;;;10.40;99.90;;;;;;5046848;28;20022;-77
2023/11/18 00:24:09;;;;;;;2.45;1.08;;;10.40;99.90;;;;;;5046848;28;20275;-77
2023/11/18 00:26:35;;;;;;;4.53;1.48;;;10.40;99.90;;;;;;5045694;28;20184;-77
2023/11/18 00:29:01;;;;;;;2.13;1.20;;;10.40;99.90;;;;;;5046622;28;20026;-77
2023/11/18 00:31:27;;;;;;;4.82;1.63;;;10.40;99.90;;;;;;5045650;28;20033;-84
2023/11/18 00:33:53;;;;;;;2.58;1.27;;;10.40;99.90;;;;;;5029259;28;20029;-77
2023/11/18 00:36:18;;;;;;;2.58;1.08;;;10.50;99.90;;;;;;5045521;28;20037;-77
2023/11/18 00:38:44;;;;;;;4.97;1.63;;;10.60;99.90;;;;;;5028977;28;20102;-77
2023/11/18 00:41:10;;;;;;;2.28;1.40;;;10.60;99.90;;;;;;5028940;28;20013;-77
2023/11/18 00:43:36;;;;;;;3.80;1.63;;;10.60;99.90;;;;;;5029036;28;20033;-77
2023/11/18 00:46:03;;;;;;;4.05;1.65;;;10.60;99.90;;;;;;5029001;28;20029;-77
2023/11/18 00:48:30;;;;;;;3.35;1.13;;;10.50;99.90;;;;;;5029035;28;20041;-77
2023/11/18 00:50:56;;;;;;;3.10;1.15;;;10.60;99.90;;;;;;5045558;28;20029;-77
2023/11/18 00:53:22;;;;;;;4.53;1.23;;;10.60;99.90;;;;;;5044916;28;20048;-77
2023/11/18 00:55:48;;;;;;;3.17;1.33;;;10.60;99.90;;;;;;5029087;28;20025;-77
2023/11/18 00:58:14;;;;;;;6.70;1.95;;;10.60;99.90;;;;;;5045238;28;20043;-78
2023/11/18 01:00:40;;;;;;;1.83;1.00;;;10.70;99.90;;;;;;5045243;28;20021;-77
2023/11/18 01:03:05;;;;;;;3.83;1.10;;;10.80;99.90;;;;;;5046097;28;20021;-77
2023/11/18 01:05:31;;;;;;;3.35;1.30;;;10.70;99.90;;;;;;5046177;28;20072;-78
2023/11/18 01:07:57;;;;;;;4.60;1.70;;;10.80;99.90;;;;;;5045233;28;20029;-77
2023/11/18 01:10:23;;;;;;;1.80;0.90;;;10.80;99.90;;;;;;5028580;28;20055;-77
2023/11/18 01:12:49;;;;;;;2.05;0.80;;;10.80;99.90;;;;;;5028504;28;20045;-77
2023/11/18 01:15:14;;;;;;;2.00;1.00;;;10.90;99.90;;;;;;5045006;28;20059;-77
2023/11/18 01:17:40;;;;;;;3.28;0.90;;;10.90;99.90;;;;;;5044757;28;20081;-77
2023/11/18 01:20:10;;;;;;;2.28;1.20;;;11.00;99.90;;;;;;5044855;28;20029;-77
2023/11/18 01:22:37;;;;;;;2.35;0.90;;;11.00;99.90;;;;;;5044807;28;20018;-76
2023/11/18 01:25:05;;;;;;;3.25;1.02;;;11.00;99.90;;;;;;5028416;28;20246;-77
2023/11/18 01:27:33;;;;;;;1.38;0.73;;;11.00;99.90;;;;;;5028541;28;20354;-77
2023/11/18 01:29:59;;;;;;;4.07;0.95;;;11.10;99.90;;;;;;5028604;28;20037;-77
2023/11/18 01:32:25;;;;;;;1.25;0.73;;;11.20;99.90;;;;;;5044576;28;20040;-77
2023/11/18 01:34:51;;;;;;;1.73;0.80;;;11.30;99.90;;;;;;5028094;28;20350;-77
2023/11/18 01:37:17;;;;;;;2.35;0.60;;;11.40;99.90;;;;;;5044538;28;20287;-77
2023/11/18 01:39:43;;;;;;;2.70;1.20;;;11.40;99.90;;;;;;5044622;28;20030;-77
2023/11/18 01:42:08;;;;;;;1.20;0.73;;;11.40;99.90;;;;;;5028337;28;20214;-77
2023/11/18 01:44:35;;;;;;;0.98;0.80;;;11.40;99.90;;;;;;5044423;28;20022;-78
2023/11/18 01:47:03;;;;;;;1.05;0.70;;;11.40;99.90;;;;;;5044525;28;20278;-77
2023/11/18 01:49:28;;;;;;;2.40;1.10;;;11.50;99.90;;;;;;5044272;28;20061;-77
2023/11/18 01:51:54;;;;;;;1.50;0.70;;;11.50;99.90;;;;;;5044515;28;20029;-77
2023/11/18 01:54:21;;;;;;;3.20;0.80;;;11.50;99.90;;;;;;5044401;28;20039;-77
2023/11/18 01:56:48;;;;;;;1.52;0.75;;;11.50;99.90;;;;;;5044408;28;20101;-77
2023/11/18 01:59:20;;;;;;;2.88;0.90;;;11.40;99.90;;;;;;5028005;28;20191;-78
2023/11/18 02:01:51;;;;;;;1.45;0.98;;;11.40;99.90;;;;;;5013272;28;20025;-77
2023/11/18 02:04:19;;;;;;;2.35;0.85;;;11.40;99.90;;;;;;5028270;28;20290;-77
2023/11/18 02:06:44;;;;;;;2.22;0.90;;;11.30;99.90;;;;;;5048393;28;20029;-77
2023/11/18 02:09:11;;;;;;;0.73;0.73;;;11.30;99.90;;;;;;5048356;28;20183;-78
2023/11/18 02:11:43;;;;;;;1.95;0.70;;;11.30;99.90;;;;;;5048453;28;20191;-78
2023/11/18 02:14:12;;;;;;;1.75;0.70;;;11.30;99.90;;;;;;5032669;28;20038;-78
2023/11/18 02:16:38;;;;;;;1.73;0.60;;;11.20;99.90;;;;;;5032285;28;20027;-78
2023/11/18 02:19:05;;;;;;;0.80;0.60;;;11.20;99.90;;;;;;5048244;28;20038;-79
2023/11/18 02:21:33;;;;;;;1.65;0.70;;;11.20;99.90;;;;;;5048315;28;20270;-78
2023/11/18 02:23:59;;;;;;;2.22;0.75;;;11.10;99.90;;;;;;5015867;28;20155;-78
2023/11/18 02:26:25;;;;;;;1.10;0.70;;;11.10;99.90;;;;;;5048823;28;20029;-78
2023/11/18 02:28:53;;;;;;;1.50;0.80;;;11.10;99.90;;;;;;5048050;28;20245;-78
2023/11/18 02:31:26;;;;;;;2.28;0.73;;;11.10;99.90;;;;;;5049085;28;20032;-77
2023/11/18 02:34:07;;;;;;;0.65;0.65;;;11.10;99.90;;;;;;5032210;28;20029;-78
2023/11/18 02:36:39;;;;;;;0.52;0.52;;;11.00;99.90;;;;;;5048051;28;20025;-77
2023/11/18 02:39:10;;;;;;;1.27;0.60;;;11.00;99.90;;;;;;5048531;28;20041;-78
2023/11/18 02:41:36;;;;;;;0.55;0.55;;;10.90;99.90;;;;;;5048928;28;20084;-78
2023/11/18 02:44:08;;;;;;;3.17;0.70;;;11.00;99.90;;;;;;5047695;28;20026;-77
2023/11/18 02:46:38;;;;;;;1.40;0.60;;;11.00;99.90;;;;;;5032016;28;20029;-77
2023/11/18 02:49:04;;;;;;;2.53;0.90;;;10.90;99.90;;;;;;5047710;28;20116;-77
2023/11/18 02:51:33;;;;;;;2.92;0.75;;;11.00;99.90;;;;;;5047929;28;20096;-77
2023/11/18 02:53:59;;;;;;;1.65;0.70;;;11.00;99.90;;;;;;5047893;28;20029;-76
2023/11/18 02:56:25;;;;;;;3.17;0.80;;;11.00;99.90;;;;;;5048566;28;20045;-76
2023/11/18 02:58:50;;;;;;;0.50;0.50;;;11.10;99.90;;;;;;5048395;28;20064;-77
2023/11/18 03:01:16;;;;;;;2.03;0.77;;;11.10;99.90;;;;;;5031006;28;20026;-77
2023/11/18 03:03:42;;;;;;;1.05;0.65;;;11.10;99.90;;;;;;5047719;28;20017;-77
2023/11/18 03:06:08;;;;;;;1.25;0.70;;;11.10;99.90;;;;;;5047659;28;20238;-77
2023/11/18 03:08:34;;;;;;;0.60;0.60;;;11.10;99.90;;;;;;5030982;28;20071;-77
2023/11/18 03:10:59;;;;;;;1.70;0.80;;;11.20;99.90;;;;;;5047552;28;20033;-77
2023/11/18 03:13:26;;;;;;;2.42;0.60;;;11.20;99.90;;;;;;5048293;28;20033;-77
2023/11/18 03:15:51;;;;;;;1.42;0.68;;;11.30;99.90;;;;;;5046833;28;20302;-77
2023/11/18 03:18:17;;;;;;;1.83;0.60;;;11.30;99.90;;;;;;5046878;28;20052;-76
2023/11/18 03:20:43;;;;;;;0.60;0.60;;;11.30;99.90;;;;;;5047151;28;20060;-76
2023/11/18 03:23:09;;;;;;;0.63;0.63;;;11.30;99.90;;;;;;5047060;28;20105;-76
2023/11/18 03:25:34;;;;;;;3.65;0.90;;;11.30;99.90;;;;;;5048066;28;20103;-76
2023/11/18 03:28:00;;;;;;;2.83;0.70;;;11.30;99.90;;;;;;5048069;28;20029;-77
2023/11/18 03:30:28;;;;;;;2.53;1.00;;;11.30;99.90;;;;;;5047709;28;20060;-77
2023/11/18 03:32:54;;;;;;;1.45;0.73;;;11.30;99.90;;;;;;5047780;28;20033;-76
2023/11/18 03:35:20;;;;;;;1.58;0.70;;;11.30;99.90;;;;;;5046956;28;20033;-76
2023/11/18 03:37:46;;;;;;;0.82;0.50;;;11.30;99.90;;;;;;5030213;28;20116;-77
2023/11/18 03:40:13;;;;;;;0.85;0.65;;;11.40;99.90;;;;;;5047410;28;20022;-76
2023/11/18 03:42:40;;;;;;;2.10;0.77;;;11.40;99.90;;;;;;5030178;28;20099;-77
2023/11/18 03:45:06;;;;;;;2.35;0.70;;;11.40;99.90;;;;;;5030448;28;20079;-77
2023/11/18 03:47:31;;;;;;;1.98;0.73;;;11.40;99.90;;;;;;5046655;28;20017;-77
2023/11/18 03:49:58;;;;;;;0.52;0.52;;;11.40;99.90;;;;;;5029790;28;20054;-77
2023/11/18 03:52:24;;;;;;;0.60;0.60;;;11.50;99.90;;;;;;5047191;28;20299;-77
2023/11/18 03:54:49;;;;;;;1.38;0.63;;;11.40;99.90;;;;;;5046409;28;20037;-77
2023/11/18 03:57:15;;;;;;;1.00;0.70;;;11.50;99.90;;;;;;5047467;28;20083;-77
2023/11/18 03:59:41;;;;;;;4.28;0.68;;;11.50;99.90;;;;;;5047463;28;20036;-77
2023/11/18 04:02:07;;;;;;;1.58;0.80;;;11.50;99.90;;;;;;5047432;28;20022;-77
2023/11/18 04:04:33;;;;;;;1.30;0.50;;;11.60;99.90;;;;;;5046318;28;20097;-76
2023/11/18 04:07:00;;;;;;;0.50;0.50;;;11.60;99.90;;;;;;5029868;28;20041;-76
2023/11/18 04:09:27;;;;;;;1.38;0.65;;;11.60;99.90;;;;;;5046295;28;20111;-77
2023/11/18 04:11:52;;;;;;;1.65;0.68;;;11.60;99.90;;;;;;5046114;28;20065;-77
2023/11/18 04:14:18;;;;;;;2.50;0.77;;;11.60;99.90;;;;;;5029615;28;20041;-76
2023/11/18 04:16:48;;;;;;;1.02;0.77;;;11.60;99.90;;;;;;5046937;28;20107;-77
2023/11/18 04:19:14;;;;;;;14.45;1.08;;;11.70;99.90;;;;;;5046964;28;20056;-76
2023/11/18 04:21:40;;;;;;;1.02;0.75;;;11.70;99.90;;;;;;5047054;28;20029;-76
2023/11/18 04:24:06;;;;;;;2.58;0.88;;;11.70;99.90;;;;;;5029581;28;20054;-76
2023/11/18 04:26:32;;;;;;;0.90;0.70;;;11.70;99.90;;;;;;5046005;28;20032;-76
2023/11/18 04:28:58;;;;;;;1.05;0.60;;;11.80;99.90;;;;;;5045022;28;20037;-76
2023/11/18 04:31:26;;;;;;;1.70;0.70;;;11.80;99.90;;;;;;5029314;28;20025;-76
2023/11/18 04:33:52;;;;;;;0.60;0.50;;;11.80;99.90;;;;;;5045937;28;20044;-76
2023/11/18 04:36:19;;;;;;;0.60;0.55;;;11.80;99.90;;;;;;5029168;28;20037;-76
2023/11/18 04:38:44;;;;;;;1.10;0.60;;;11.80;99.90;;;;;;5046434;28;20238;-76
2023/11/18 04:41:10;;;;;;;2.80;0.70;;;11.90;99.90;;;;;;5046541;28;20025;-76
2023/11/18 04:43:36;;;;;;;1.08;0.70;;;11.90;99.90;;;;;;5029245;28;20037;-76
2023/11/18 04:46:01;;;;;;;1.90;0.70;;;11.90;99.90;;;;;;5045287;28;20033;-78
2023/11/18 04:48:27;;;;;;;1.17;0.65;;;11.90;99.90;;;;;;5045311;28;20064;-79
2023/11/18 04:50:53;;;;;;;1.95;0.60;;;12.00;99.90;;;;;;5045428;28;20037;-79
2023/11/18 04:53:18;;;;;;;2.92;0.63;;;12.00;99.90;;;;;;5029158;28;20055;-76
2023/11/18 04:55:44;;;;;;;0.60;0.50;;;12.00;99.90;;;;;;5046401;28;20291;-76
2023/11/18 04:58:10;;;;;;;2.55;0.60;;;12.00;99.90;;;;;;5045314;28;20037;-76
2023/11/18 05:00:39;;;;;;;1.95;0.65;;;11.90;99.90;;;;;;5045103;28;20029;-76
2023/11/18 05:03:09;;;;;;;2.03;0.50;;;11.90;99.90;;;;;;5046123;28;20029;-76
2023/11/18 05:05:37;;;;;;;;;;;11.90;99.90;;;;;;5045688;28;20029;-79
2023/11/18 05:08:07;;;;;;;1.80;0.70;;;12.00;99.90;;;;;;5045249;28;19913;-78
2023/11/18 05:10:33;;;;;;;;;;;11.90;99.90;;;;;;5013298;28;20041;-79
2023/11/18 05:12:59;;;;;;;0.75;0.60;;;12.00;99.90;;;;;;5046015;28;19970;-79
2023/11/18 05:15:25;;;;;;;1.17;0.70;;;12.00;99.90;;;;;;5045204;28;20022;-79
2023/11/18 05:17:51;;;;;;;1.17;0.40;;;12.00;99.90;;;;;;5046040;28;20041;-79
2023/11/18 05:20:17;;;;;;;3.03;0.68;;;12.10;99.90;;;;;;5045598;28;20017;-79
2023/11/18 05:22:43;;;;;;;2.38;0.50;;;12.10;99.90;;;;;;5028548;28;20037;-79
2023/11/18 05:25:09;;;;;;;0.88;0.50;;;12.10;99.90;;;;;;5028513;28;20188;-78
2023/11/18 05:27:35;;;;;;;0.57;0.50;;;12.10;99.90;;;;;;5028558;28;20234;-79
2023/11/18 05:30:01;;;;;;;1.25;0.65;;;12.10;99.90;;;;;;5044921;28;20029;-79
2023/11/18 05:32:27;;;;;;;2.08;0.47;;;12.00;99.90;;;;;;5044695;28;20358;-77
2023/11/18 05:34:54;;;;;;;1.70;0.50;;;12.10;99.90;;;;;;5028414;28;20021;-77
2023/11/18 05:37:21;;;;;;;2.28;0.60;;;12.10;99.90;;;;;;5044598;28;20052;-76
2023/11/18 05:39:48;;;;;;;4.15;0.70;;;12.10;99.90;;;;;;5044510;28;20040;-77
2023/11/18 05:42:15;;;;;;;1.45;0.70;;;12.10;99.90;;;;;;5028397;28;20083;-76
2023/11/18 05:44:41;;;;;;;1.38;0.60;;;12.10;99.90;;;;;;5028237;28;20071;-77
2023/11/18 05:47:06;;;;;;;4.47;0.80;;;12.20;99.90;;;;;;5028165;28;20037;-76
2023/11/18 05:49:33;;;;;;;2.80;0.70;;;12.20;99.90;;;;;;5027795;28;20373;-76
2023/11/18 05:51:59;;;;;;;4.25;1.00;;;12.30;99.90;;;;;;5028171;28;20033;-79
2023/11/18 05:54:25;;;;;;;6.90;1.00;;;12.30;99.90;;;;;;5044305;28;20298;-76
2023/11/18 05:56:51;;;;;;;3.40;0.90;;;12.30;99.90;;;;;;5045273;28;20158;-76
2023/11/18 05:59:17;;;;;;;3.20;0.70;;;12.50;99.90;;;;;;5028000;28;20033;-76
2023/11/18 06:01:43;;;;;;;5.85;0.80;;;12.50;99.90;;;;;;5045453;28;20233;-76
2023/11/18 06:04:08;;;;;;;7.50;1.10;;;12.60;99.90;;;;;;5027778;28;20092;-76
2023/11/18 06:06:34;;;;;;;2.45;0.93;;;12.60;99.90;;;;;;5044521;28;20048;-76
2023/11/18 06:09:04;;;;;;;7.53;1.25;;;12.60;99.90;;;;;;5044173;28;20044;-76
2023/11/18 06:11:30;;;;;;;5.65;0.90;;;12.70;99.90;;;;;;5028524;28;20100;-77
2023/11/18 06:13:56;;;;;;;4.95;1.40;;;12.80;99.90;;;;;;5027955;28;20044;-77
2023/11/18 06:16:22;;;;;;;8.32;1.20;;;12.80;99.90;;;;;;5027673;28;20112;-77
2023/11/18 06:18:49;;;;;;;9.70;1.50;;;12.90;99.90;;;;;;5045059;28;20037;-76
2023/11/18 06:21:19;;;;;;;7.97;1.70;;;13.00;99.90;;;;;;5044286;28;20093;-76
2023/11/18 06:23:47;;;;;;;12.05;2.20;;;13.00;99.90;;;;;;5044350;28;20025;-76
2023/11/18 06:26:12;;;;;;;9.38;1.88;;;12.90;99.90;;;;;;5028093;28;20034;-76
2023/11/18 06:28:41;;;;;;;17.25;2.65;;;12.90;99.90;;;;;;5044796;28;20044;-75
2023/11/18 06:31:08;;;;;;;19.95;3.20;;;12.90;99.90;;;;;;5045098;28;20195;-76
2023/11/18 06:33:52;;;;;;;17.52;2.90;;;12.90;99.90;;;;;;5028154;28;20278;-77
2023/11/18 06:36:21;;;;;;;17.45;3.60;;;12.90;99.90;;;;;;5044264;28;20025;-77
2023/11/18 06:38:49;;;;;;;20.92;2.92;;;12.90;99.90;;;;;;5027907;28;20036;-77
2023/11/18 06:41:16;;;;;;;14.77;3.13;;;12.90;99.90;;;;;;5027928;28;20028;-76
2023/11/18 06:43:51;;;;;;;21.55;4.25;;;12.80;99.90;;;;;;5027741;28;20096;-76
2023/11/18 06:46:34;;;;;;;13.88;2.85;;;12.80;99.90;;;;;;5043982;28;20278;-76
2023/11/18 06:49:03;;;;;;;12.05;3.22;;;12.80;99.90;;;;;;5043700;28;20041;-77
2023/11/18 06:51:29;;;;;;;29.52;4.82;;;12.80;99.90;;;;;;5045728;28;20036;-76
2023/11/18 06:53:55;;;;;;;22.48;3.70;;;12.80;99.90;;;;;;5031212;28;20034;-76
2023/11/18 06:56:21;;;;;;;26.17;4.70;;;12.80;99.90;;;;;;5030985;28;20043;-76
2023/11/18 06:58:46;;;;;;;18.92;4.43;;;12.90;99.90;;;;;;5047429;28;20021;-76
2023/11/18 07:01:14;;;;;;;23.00;5.75;;;12.80;99.90;;;;;;5048429;28;20036;-76
2023/11/18 07:03:43;;;;;;;19.65;5.03;;;12.80;99.90;;;;;;5031209;28;20123;-77
2023/11/18 07:06:09;;;;;;;25.33;4.57;;;12.90;99.90;;;;;;5047497;28;20274;-76
2023/11/18 07:08:35;;;;;;;19.33;3.85;;;12.90;99.90;;;;;;5030906;28;20079;-77
2023/11/18 07:11:02;;;;;;;15.35;3.75;;;12.90;99.90;;;;;;5047243;28;20183;-76
2023/11/18 07:13:30;;;;;;;19.60;4.20;;;12.90;99.90;;;;;;5048332;28;20025;-76
2023/11/18 07:15:57;;;;;;;10.93;3.20;;;12.90;99.90;;;;;;5047234;28;20105;-76
2023/11/18 07:18:26;;;;;;;8.35;2.17;;;12.90;99.90;;;;;;5046935;28;20053;-77
2023/11/18 07:20:52;;;;;;;15.88;3.20;;;13.00;99.90;;;;;;5030629;28;20017;-77
2023/11/18 07:23:19;;;;;;;13.43;3.70;;;12.90;99.90;;;;;;5047027;28;20226;-76
2023/11/18 07:25:45;;;;;;;14.40;2.83;;;12.90;99.90;;;;;;5048132;28;20236;-76
2023/11/18 07:28:12;;;;;;;18.13;3.05;;;12.80;99.90;;;;;;5047034;28;20048;-77
2023/11/18 07:30:39;;;;;;;23.25;3.60;;;12.80;99.90;;;;;;5030828;28;20025;-77
2023/11/18 07:33:06;;;;;;;19.80;3.83;;;12.80;99.90;;;;;;5047756;28;20083;-77
2023/11/18 07:35:32;;;;;;;14.25;2.20;;;12.80;99.90;;;;;;5046817;28;20225;-76
2023/11/18 07:37:58;;;;;;;13.88;2.90;;;12.80;99.90;;;;;;5030387;28;20180;-76
2023/11/18 07:40:28;;;;;;;18.70;2.70;;;12.80;99.90;;;;;;5030250;28;20186;-78
2023/11/18 07:42:56;;;;;;;17.57;2.97;;;12.80;99.90;;;;;;5047614;28;20021;-76
2023/11/18 07:45:23;;;;;;;14.07;2.95;;;12.80;99.90;;;;;;5047309;28;20172;-77
2023/11/18 07:47:52;;;;;;;14.80;2.38;;;12.80;99.90;;;;;;5030142;28;20194;-77
2023/11/18 07:50:21;;;;;;;15.30;2.70;;;12.90;99.90;;;;;;5029777;28;20294;-76
2023/11/18 07:52:50;;;;;;;12.85;2.42;;;12.90;99.90;;;;;;5046451;28;20074;-77
2023/11/18 07:55:16;;;;;;;11.10;2.58;;;12.90;99.90;;;;;;5046311;28;20104;-76
2023/11/18 07:57:42;;;;;;;16.77;2.25;;;12.90;99.90;;;;;;5047404;28;20029;-77
2023/11/18 08:00:11;;;;;;;17.13;3.08;;;12.90;99.90;;;;;;5047509;28;20029;-77
2023/11/18 08:02:37;;;;;;;16.63;3.20;;;12.90;99.90;;;;;;5030240;28;20076;-77
2023/11/18 08:05:13;;;;;;;14.57;2.63;;;12.90;99.90;;;;;;5047206;28;20282;-77
2023/11/18 08:07:40;;;;;;;15.13;3.30;;;12.90;99.90;;;;;;5046357;28;20083;-77
2023/11/18 08:10:06;;;;;;;19.85;3.08;;;12.90;99.90;;;;;;5046694;28;20041;-77
2023/11/18 08:12:32;;;;;;;11.57;2.28;;;13.00;99.90;;;;;;5029579;28;20033;-77
2023/11/18 08:14:59;;;;;;;18.52;3.17;;;13.00;99.90;;;;;;5029479;28;20291;-77
2023/11/18 08:17:25;;;;;;;20.40;3.50;;;13.00;99.90;;;;;;5046079;28;20080;-77
2023/11/18 08:19:52;;;;;;;10.95;2.33;;;13.10;99.90;;;;;;5045922;28;20049;-77
2023/11/18 08:22:18;;;;;;;18.67;3.38;;;13.10;99.90;;;;;;5045974;28;20028;-77
2023/11/18 08:24:46;;;;;;;22.65;3.78;;;13.10;99.90;;;;;;5046017;28;20033;-77
2023/11/18 08:27:11;;;;;;;19.05;3.55;;;13.10;99.90;;;;;;5029151;28;20037;-77
2023/11/18 08:29:38;;;;;;;14.02;3.25;;;13.10;99.90;;;;;;5045701;28;20025;-77
2023/11/18 08:32:06;;;;;;;15.30;3.20;;;13.10;99.90;;;;;;5045506;28;20320;-76
2023/11/18 08:34:33;;;;;;;19.50;2.97;;;13.10;99.90;;;;;;5046421;28;20053;-77
2023/11/18 08:36:59;;;;;;;14.02;2.40;;;13.10;99.90;;;;;;5029518;28;20025;-77
2023/11/18 08:39:26;;;;;;;19.48;3.88;;;13.10;99.90;;;;;;5029220;28;20029;-77
2023/11/18 08:41:51;;;;;;;11.50;2.80;;;13.20;99.90;;;;;;5045589;28;20022;-77
2023/11/18 08:44:17;;;;;;;18.13;3.38;;;13.20;99.90;;;;;;5045934;28;20064;-77
2023/11/18 08:46:43;;;;;;;15.40;3.65;;;13.10;99.90;;;;;;5046218;28;20294;-76
2023/11/18 08:49:11;;;;;;;11.05;3.25;;;13.10;99.90;;;;;;5045109;28;20134;-77
2023/11/18 08:51:43;;;;;;;10.90;2.13;;;13.10;99.90;;;;;;5045290;28;20051;-77
2023/11/18 08:54:37;;;;;;;14.07;3.40;;;13.10;99.90;;;;;;5046538;28;20041;-76
2023/11/18 08:56:55;;;;;;;20.02;3.13;;;13.10;99.90;;;;;;5031004;28;20275;-77
2023/11/18 08:59:27;;;;;;;12.32;2.58;;;13.10;99.90;;;;;;5045962;28;20033;-77
2023/11/18 09:01:58;;;;;;;11.93;3.15;;;13.10;99.90;;;;;;5045690;28;20021;-77
2023/11/18 09:04:25;;;;;;;13.23;3.30;;;13.10;99.90;;;;;;5044994;28;20021;-77
2023/11/18 09:06:54;;;;;;;19.25;3.30;;;13.10;99.90;;;;;;5044877;28;20192;-77
2023/11/18 09:09:27;;;;;;;15.82;3.08;;;13.20;99.90;;;;;;5044955;28;20025;-76
2023/11/18 09:11:56;;;;;;;16.00;3.47;;;13.20;99.90;;;;;;5045053;28;20083;-77
2023/11/18 09:14:24;;;;;;;11.90;2.13;;;13.20;99.90;;;;;;5027895;28;20041;-77
2023/11/18 09:16:58;;;;;;;11.63;3.05;;;13.20;99.90;;;;;;5028730;28;20025;-77
2023/11/18 09:19:25;;;;;;;11.07;2.10;;;13.20;99.90;;;;;;5013569;28;20025;-77
2023/11/18 09:21:51;;;;;;;17.52;3.45;;;13.30;99.90;;;;;;5028528;28;20219;-76
2023/11/18 09:24:19;;;;;;;15.80;3.55;;;13.20;99.90;;;;;;5044796;28;20021;-77
2023/11/18 09:26:47;;;;;;;15.63;2.33;;;13.30;99.90;;;;;;5044805;28;20056;-77
2023/11/18 09:29:17;;;;;;;14.18;2.50;;;13.30;99.90;;;;;;5044595;28;20140;-77
2023/11/18 09:31:49;;;;;;;14.07;2.65;;;13.40;99.90;;;;;;5012982;28;20346;-78
2023/11/18 09:34:16;;;;;;;17.13;3.03;;;13.40;99.90;;;;;;5044599;28;20053;-77
2023/11/18 09:36:43;;;;;;;11.65;2.80;;;13.40;99.90;;;;;;5045494;28;20108;-77
2023/11/18 09:39:28;;;;;;;11.80;2.72;;;13.40;99.90;;;;;;5027996;28;20099;-78
2023/11/18 09:41:56;;;;;;;9.32;2.58;;;13.40;99.90;;;;;;5045605;28;20017;-77
2023/11/18 09:44:26;;;;;;;9.23;2.03;;;13.40;99.90;;;;;;5045303;28;20084;-77
2023/11/18 09:46:57;;;;;;;10.52;2.30;;;13.50;99.90;;;;;;5044230;28;20045;-79
2023/11/18 09:49:33;;;;;;;14.38;2.70;;;13.50;99.90;;;;;;5044144;28;20095;-78
2023/11/18 09:52:00;;;;;;;17.70;2.70;;;13.40;99.90;;;;;;5028574;28;20190;-77
2023/11/18 09:55:02;;;;;;;8.40;2.15;;;13.40;99.90;;;;;;5044131;28;20025;-77
2023/11/18 09:57:34;;;;;;;10.30;2.00;;;13.50;99.90;;;;;;5044189;28;20064;-77
2023/11/18 10:00:19;;;;;;;13.63;2.90;;;13.50;99.90;;;;;;5044088;28;20097;-78
2023/11/18 10:02:46;;;;;;;11.02;2.75;;;13.50;99.90;;;;;;5044158;28;20243;-78
2023/11/18 10:05:12;;;;;;;18.92;3.85;;;13.50;99.90;;;;;;5028031;28;20033;-77
2023/11/18 10:07:41;;;;;;;15.52;2.78;;;13.60;99.90;;;;;;5044248;28;20179;-78
2023/11/18 10:10:14;;;;;;;19.25;3.38;;;13.70;99.90;;;;;;5044489;28;20025;-77
2023/11/18 10:12:58;;;;;;;16.17;3.17;;;13.70;99.90;;;;;;5045185;28;20088;-76
2023/11/18 10:15:24;;;;;;;23.55;4.22;;;13.80;99.90;;;;;;5027430;28;20034;-76
2023/11/18 10:18:06;;;;;;;16.63;3.63;;;13.80;99.90;;;;;;5027414;28;20190;-76
2023/11/18 10:20:45;;;;;;;14.88;3.05;;;13.80;99.90;;;;;;5014911;28;20097;-76
2023/11/18 10:23:11;;;;;;;15.00;3.10;;;13.90;99.90;;;;;;5027317;28;20030;-76
2023/11/18 10:25:52;;;;;;;25.45;4.00;;;13.80;99.90;;;;;;5043738;28;20061;-76
2023/11/18 10:28:33;;;;;;;15.38;3.00;;;13.90;99.90;;;;;;5016124;28;20063;-77
2023/11/18 10:31:04;;;;;;;27.65;5.15;;;13.90;99.90;;;;;;5047751;28;20101;-77
2023/11/18 10:33:35;;;;;;;25.27;3.63;;;13.80;99.90;;;;;;5031067;28;20120;-77
2023/11/18 10:36:04;;;;;;;12.57;2.85;;;13.80;99.90;;;;;;5031855;28;20283;-76
2023/11/18 10:38:39;;;;;;;26.48;4.32;;;13.80;99.90;;;;;;5048452;28;20044;-77
2023/11/18 10:41:05;;;;;;;29.40;5.00;;;13.80;99.90;;;;;;5047703;28;20183;-78
2023/11/18 10:43:35;;;;;;;20.48;3.67;;;13.90;99.90;;;;;;5031343;28;20092;-77
2023/11/18 10:46:13;;;;;;;30.40;5.03;;;13.90;99.90;;;;;;5048278;28;20309;-77
2023/11/18 10:48:43;;;;;;;29.85;4.72;;;13.90;99.90;;;;;;5047197;28;20061;-77
2023/11/18 10:51:12;;;;;;;16.70;4.00;;;13.80;99.90;;;;;;5047393;28;20109;-77
2023/11/18 10:53:52;;;;;;;17.77;3.40;;;13.90;99.90;;;;;;5047600;28;20030;-77
2023/11/18 10:56:26;;;;;;;14.35;3.42;;;14.00;99.90;;;;;;5047964;28;20028;-77
2023/11/18 10:58:58;;;;;;;21.63;6.25;;;14.00;99.90;;;;;;5047961;28;20051;-77
2023/11/18 11:01:28;;;;;;;29.67;9.52;;;14.00;99.90;;;;;;5047323;28;20025;-77
2023/11/18 11:03:57;;;;;;;;;;;14.10;99.90;;;;;;5030956;28;20152;-77
2023/11/18 11:06:26;;;;;;;23.55;4.68;;;14.10;99.90;;;;;;5047894;28;19920;-77
2023/11/18 11:08:52;;;;;;;32.92;6.85;;;14.00;99.90;;;;;;5046857;28;20033;-78
2023/11/18 11:11:21;;;;;;;29.23;4.63;;;14.10;99.90;;;;;;5046873;28;20045;-77
2023/11/18 11:13:51;;;;;;;24.05;5.07;;;14.20;99.90;;;;;;5047959;28;20049;-78
2023/11/18 11:16:19;;;;;;;;;;;14.20;99.90;;;;;;5014603;28;20096;-77
2023/11/18 11:18:51;;;;;;;23.33;4.13;;;14.20;99.90;;;;;;5030126;28;20110;-78
2023/11/18 11:21:22;;;;;;;26.67;5.05;;;14.30;99.90;;;;;;5046702;28;20179;-77
2023/11/18 11:23:55;;;;;;;30.95;8.48;;;14.30;99.90;;;;;;5047726;28;20221;-78
2023/11/18 11:26:27;;;;;;;29.15;4.72;;;14.20;99.90;;;;;;5030078;28;20026;-77
2023/11/18 11:29:19;;;;;;;24.15;4.97;;;14.20;99.90;;;;;;5047473;28;20033;-77
2023/11/18 11:31:47;;;;;;;32.25;5.35;;;14.10;99.90;;;;;;5019643;28;20045;-77
2023/11/18 11:34:20;;;;;;;29.17;5.80;;;14.10;99.90;;;;;;5046550;28;20065;-77
2023/11/18 11:36:50;;;;;;;34.63;5.40;;;14.00;99.90;;;;;;5046041;28;20194;-77
2023/11/18 11:39:25;;;;;;;33.33;6.30;;;14.00;99.90;;;;;;5030224;28;20087;-77
2023/11/18 11:41:52;;;;;;;31.27;6.68;;;14.00;99.90;;;;;;5046592;28;20025;-76
2023/11/18 11:44:20;;;;;;;33.63;5.95;;;14.00;99.90;;;;;;5047497;28;20083;-77
2023/11/18 11:46:52;;;;;;;23.75;5.07;;;14.00;99.90;;;;;;5046105;28;20049;-77
2023/11/18 11:49:21;;;;;;;34.40;7.50;;;13.90;99.90;;;;;;5030578;28;20064;-78
2023/11/18 11:51:54;;;;;;;38.63;8.00;;;13.90;99.90;;;;;;5014036;28;20056;-78
2023/11/18 11:54:29;;;;;;;30.73;5.10;;;14.00;99.90;;;;;;5029578;28;20033;-77
2023/11/18 11:56:59;;;;;;;20.83;5.20;;;13.90;99.90;;;;;;5046365;28;20060;-77
2023/11/18 11:59:55;;;;;;;38.88;7.55;;;13.90;99.90;;;;;;5030058;28;20064;-78
2023/11/18 12:02:28;;;;;;;45.08;8.18;;;14.00;99.90;;;;;;5045774;28;20283;-76
2023/11/18 12:04:58;;;;;;;38.97;7.32;;;14.00;99.90;;;;;;5029767;28;20233;-78
2023/11/18 12:07:27;;;;;;;35.40;8.13;;;14.00;99.90;;;;;;5045978;28;20032;-78
2023/11/18 12:09:57;;;;;;;41.75;11.15;;;14.00;99.90;;;;;;5029676;28;20105;-77
2023/11/18 12:12:27;;;;;;;31.55;8.05;;;14.00;99.90;;;;;;5045756;28;20040;-78
2023/11/18 12:14:56;;;;;;;58.60;12.38;;;14.00;99.90;;;;;;5046129;28;20216;-78
2023/11/18 12:17:22;;;;;;;31.48;7.35;;;14.00;99.90;;;;;;5045941;28;20060;-77
2023/11/18 12:19:48;;;;;;;31.85;7.68;;;14.00;99.90;;;;;;5045622;28;20084;-77
2023/11/18 12:22:18;;;;;;;52.95;17.73;;;14.00;99.90;;;;;;5045631;28;20025;-78
2023/11/18 12:24:46;;;;;;;79.97;19.10;;;14.00;99.90;;;;;;5029423;28;20071;-77
2023/11/18 12:27:13;;;;;;;92.68;30.58;;;13.90;99.90;;;;;;5046713;28;20097;-78
2023/11/18 12:29:45;;;;;;;28.92;10.05;;;14.00;99.90;;;;;;5045659;28;20036;-78
2023/11/18 12:32:16;;;;;;;47.78;8.82;;;14.00;99.90;;;;;;5045485;28;20026;-77
2023/11/18 12:34:54;;;;;;;30.17;5.80;;;14.00;99.90;;;;;;5045661;28;20029;-78
2023/11/18 12:37:54;;;;;;;26.85;11.77;;;14.00;99.90;;;;;;5029035;28;20030;-78
2023/11/18 12:40:31;;;;;;;40.90;7.78;;;14.00;99.90;;;;;;5046096;28;20040;-78
2023/11/18 12:43:05;;;;;;;18.67;6.38;;;14.10;99.90;;;;;;5045333;28;20095;-79
2023/11/18 12:46:14;;;;;;;43.35;8.60;;;14.10;99.90;;;;;;5046002;28;20029;-77
2023/11/18 12:48:44;;;;;;;29.80;6.53;;;14.10;99.90;;;;;;4997825;28;20111;-77
2023/11/18 12:51:19;;;;;;;28.77;6.50;;;14.10;99.90;;;;;;5045148;28;20025;-78